Latest Weather Observations for Launceston Airport

IDT60801

Issued at 5:11 am EDT Sunday 25 October 2020 (issued every 10 minutes, with the page automatically refreshed every 10 minutes)

About weather observations | Map of weather stations | Latest weather observations for TAS | Other Formats
Station Details ID: 091311 Name: LAUNCESTON AIRPORT Lat: -41.55 Lon: 147.22 Height: 166.9 m
Data from the previous 72 hours. | See also: Recent months at Launceston Airport
Date/Time
EDT
Temp
°C
App
Temp
°C
Dew
Point
°C
Rel
Hum
%
Delta-T
°C
Wind Press
QNH
hPa
Press
MSL
hPa
Rain since
9am
mm
Dir  Spd
km/h
Gust
km/h
Spd
kts
Gust
kts
25/05:00am 4.5 -2.2 -1.1 67 2.1 SE 24 32 13 17 1016.6 1016.7 0.0
25/04:30am 4.3 -1.6 -1.1 68 2.0 SSE 20 30 11 16 1016.0 1016.1 0.0
25/04:00am 4.1 -1.5 -0.1 74 1.6 SSE 19 24 10 13 1015.6 1015.7 0.0
25/03:30am 4.7 -1.1 -0.1 71 1.8 SSE 20 28 11 15 1015.1 1015.2 0.0
25/03:00am 5.1 -0.6 0.5 72 1.8 SSE 20 26 11 14 1014.3 1014.3 0.0
25/02:30am 5.9 0.3 1.2 72 1.9 SSE 20 28 11 15 1013.7 1013.7 0.0
25/02:00am 6.3 0.5 2.4 76 1.6 SSE 22 32 12 17 1013.4 1013.4 0.0
25/01:30am 6.3 0.5 2.4 76 1.6 SE 22 28 12 15 1012.8 1012.9 0.0
25/01:00am 6.5 0.0 2.4 75 1.7 SE 26 35 14 19 1012.4 1012.5 0.0
25/12:30am 7.3 0.5 0.7 63 2.6 SSE 26 35 14 19 1011.7 1011.8 0.0
25/12:00am 7.8 1.6 2.3 68 2.3 SSE 24 32 13 17 1011.3 1011.4 0.0
 
Date/Time
EDT
Temp
°C
App
Temp
°C
Dew
Point
°C
Rel
Hum
%
Delta-T
°C
Wind Press
QNH
hPa
Press
MSL
hPa
Rain since
9am
mm
Dir  Spd
km/h
Gust
km/h
Spd
kts
Gust
kts
24/11:30pm 8.0 2.6 2.3 67 2.4 SSE 20 24 11 13 1010.7 1010.8 0.0
24/11:00pm 8.3 1.2 1.2 61 2.9 SSE 28 37 15 20 1010.3 1010.4 0.0
24/10:30pm 8.8 1.7 1.5 60 3.0 SSE 28 39 15 21 1009.9 1010.0 0.0
24/10:00pm 8.8 3.1 3.0 67 2.5 SSE 22 32 12 17 1009.4 1009.5 0.0
24/09:30pm 9.8 4.6 2.4 60 3.2 SSE 19 24 10 13 1008.6 1008.6 0.0
24/09:00pm 11.0 4.7 1.3 51 4.1 S 24 30 13 16 1007.7 1007.7 0.0
24/08:30pm 11.0 7.3 2.3 55 3.8 SSE 11 13 6 7 1006.9 1006.9 0.0
24/08:00pm 11.8 9.0 2.3 52 4.2 SSE 6 7 3 4 1005.9 1006.0 0.0
24/07:30pm 12.2 8.2 0.6 45 4.9 S 11 15 6 8 1005.3 1005.4 0.0
24/07:00pm 13.1 6.4 -1.2 37 5.9 SW 24 32 13 17 1004.6 1004.7 0.0
24/06:30pm 13.5 8.0 2.1 46 5.0 SSW 20 32 11 17 1004.1 1004.1 0.0
24/06:00pm 14.2 8.7 1.8 43 5.5 SSW 20 28 11 15 1003.6 1003.6 0.0
24/05:30pm 14.7 9.3 2.6 44 5.4 SW 20 30 11 16 1003.1 1003.1 0.0
24/05:00pm 15.6 10.7 4.0 46 5.4 SSE 19 24 10 13 1002.6 1002.6 0.0
24/04:30pm 17.0 13.9 7.4 53 4.8 SE 13 19 7 10 1002.3 1002.3 0.0
24/04:00pm 16.1 12.8 6.3 52 4.8 SE 13 19 7 10 1002.1 1002.1 0.0
24/03:30pm 17.0 13.8 5.3 46 5.7 S 11 17 6 9 1002.0 1002.0 0.0
24/03:00pm 16.7 13.6 7.4 54 4.7 SSE 13 19 7 10 1002.1 1002.1 0.0
24/02:30pm 16.1 13.0 5.4 49 5.2 SSW 11 15 6 8 1002.1 1002.1 0.0
24/02:00pm 16.5 13.4 7.2 54 4.7 S 13 20 7 11 1002.0 1002.0 0.0
24/01:30pm 16.4 12.4 4.8 46 5.5 SSE 15 24 8 13 1001.6 1001.6 0.0
24/01:00pm 16.8 13.6 8.5 58 4.3 SE 15 24 8 13 1001.5 1001.5 0.0
24/12:30pm 16.3 12.6 6.4 52 4.9 ESE 15 24 8 13 1001.6 1001.6 0.0
24/12:00pm 15.7 12.9 8.4 62 3.8 ESE 13 24 7 13 1001.8 1001.8 0.0
24/11:30am 15.1 11.3 7.4 60 3.8 SE 17 26 9 14 1001.9 1001.9 0.0
24/11:00am 15.2 11.5 10.2 72 2.7 SSE 20 28 11 15 1002.0 1002.0 0.0
24/10:30am 14.5 10.6 9.5 72 2.6 SSE 20 30 11 16 1001.7 1001.7 0.0
24/10:00am 14.1 9.9 9.9 76 2.2 SSE 22 28 12 15 1001.7 1001.7 0.0
24/09:30am 12.9 9.1 9.9 82 1.6 SE 20 30 11 16 1001.4 1001.4 0.0
24/09:00am 12.1 9.2 11.0 93 0.6 SE 17 20 9 11 1001.6 1001.6 12.6
24/08:48am 11.6 8.2 10.7 94 0.5 SE 19 24 10 13 1001.6 1001.6 12.6
24/08:47am 11.6 8.2 10.7 94 0.5 SE 19 24 10 13 1001.6 1001.6 12.6
24/08:30am 11.5 7.9 10.7 95 0.4 SE 20 26 11 14 1001.5 1001.5 12.6
24/08:22am 11.6 9.4 10.7 94 0.5 SSE 13 26 7 14 1001.5 1001.5 12.4
24/08:00am 12.4 11.3 11.9 97 0.3 SSW 9 13 5 7 1001.4 1001.4 12.4
24/07:30am 12.1 12.7 11.8 98 0.2 CALM 0 0 0 0 1001.2 1001.2 12.4
24/07:00am 11.8 12.3 11.5 98 0.2 CALM 0 0 0 0 1001.2 1001.2 12.4
24/06:30am 11.5 11.5 11.2 98 0.2 N 2 6 1 3 1001.0 1001.0 12.4
24/06:00am 11.6 10.7 11.3 98 0.2 N 7 9 4 5 1001.3 1001.3 12.4
24/05:55am 11.6 10.7 11.3 98 0.2 N 7 9 4 5 1001.2 1001.2 12.4
24/05:30am 11.6 10.3 11.3 98 0.2 N 9 11 5 6 1001.3 1001.3 12.0
24/05:28am 11.6 10.3 11.3 98 0.2 N 9 11 5 6 1001.3 1001.3 12.0
24/05:12am 11.7 10.4 11.4 98 0.2 N 9 11 5 6 1001.5 1001.5 11.8
24/05:00am 11.6 10.7 11.3 98 0.2 N 7 9 4 5 1001.4 1001.4 11.8
24/04:30am 11.7 10.4 11.4 98 0.2 N 9 11 5 6 1001.7 1001.7 11.6
24/04:27am 11.7 10.4 11.4 98 0.2 N 9 11 5 6 1001.7 1001.7 11.6
24/04:00am 11.9 10.7 11.6 98 0.2 N 9 13 5 7 1001.9 1001.9 11.0
24/03:30am 11.8 10.5 11.3 97 0.3 N 9 11 5 6 1002.0 1002.0 10.6
24/03:00am 11.8 10.9 11.3 97 0.3 N 7 9 4 5 1002.2 1002.2 9.6
24/02:30am 11.9 11.6 11.4 97 0.3 N 4 11 2 6 1002.5 1002.5 9.2
24/02:05am 11.8 11.8 11.3 97 0.3 N 2 7 1 4 1002.9 1002.9 9.2
24/02:00am 11.7 10.9 11.2 97 0.3 N 6 7 3 4 1003.0 1003.0 9.2
24/01:58am 11.7 10.9 11.2 97 0.3 N 6 7 3 4 1003.0 1003.0 9.2
24/01:52am 11.7 10.8 11.2 97 0.3 N 7 7 4 4 1003.1 1003.1 9.2
24/01:30am 11.7 10.8 11.2 97 0.3 NNW 7 7 4 4 1003.6 1003.6 9.0
24/01:00am 11.7 10.7 11.1 96 0.3 NNW 7 9 4 5 1004.1 1004.1 8.0
24/12:32am 11.9 10.6 11.3 96 0.3 WNW 9 11 5 6 1004.3 1004.3 6.8
24/12:30am 11.9 10.6 11.3 96 0.3 WNW 9 11 5 6 1004.3 1004.3 6.8
24/12:00am 12.0 11.3 11.4 96 0.3 NW 6 7 3 4 1004.6 1004.7 5.8
 
Date/Time
EDT
Temp
°C
App
Temp
°C
Dew
Point
°C
Rel
Hum
%
Delta-T
°C
Wind Press
QNH
hPa
Press
MSL
hPa
Rain since
9am
mm
Dir  Spd
km/h
Gust
km/h
Spd
kts
Gust
kts
23/11:30pm 11.9 11.0 11.3 96 0.3 NW 7 9 4 5 1004.8 1004.9 4.8
23/11:00pm 11.8 10.9 11.2 96 0.3 NNW 7 9 4 5 1005.1 1005.2 3.8
23/10:30pm 11.9 11.2 11.3 96 0.3 N 6 9 3 5 1005.5 1005.6 3.4
23/10:00pm 11.9 10.6 11.1 95 0.4 WNW 9 11 5 6 1005.9 1006.0 2.6
23/09:30pm 11.9 10.9 11.1 95 0.4 W 7 9 4 5 1006.0 1006.1 2.4
23/09:00pm 12.0 10.3 11.1 94 0.5 W 11 13 6 7 1006.3 1006.4 2.2
23/08:32pm 12.1 10.8 11.2 94 0.5 WNW 9 11 5 6 1006.2 1006.3 1.8
23/08:30pm 12.2 10.9 11.3 94 0.5 WNW 9 11 5 6 1006.2 1006.3 1.8
23/08:00pm 12.2 11.2 11.1 93 0.6 NW 7 9 4 5 1006.1 1006.2 1.8
23/07:57pm 12.2 11.2 11.1 93 0.6 NW 7 9 4 5 1006.1 1006.2 1.8
23/07:30pm 12.2 10.5 11.1 93 0.6 WNW 11 15 6 8 1005.8 1005.9 1.8
23/07:00pm 12.4 10.3 11.0 91 0.7 WNW 13 19 7 10 1005.7 1005.8 1.8
23/06:50pm 12.5 10.0 11.1 91 0.7 W 15 19 8 10 1005.8 1005.9 1.8
23/06:48pm 12.6 10.1 11.2 91 0.7 W 15 19 8 10 1005.8 1005.9 1.8
23/06:33pm 12.7 10.3 11.3 91 0.7 WNW 15 20 8 11 1005.7 1005.8 1.8
23/06:30pm 12.6 10.1 11.2 91 0.7 WNW 15 20 8 11 1005.8 1005.9 1.8
23/06:18pm 12.8 9.9 11.0 89 1.0 WNW 17 20 9 11 1005.9 1006.0 1.8
23/06:00pm 12.7 10.1 10.6 87 1.1 NW 15 20 8 11 1006.1 1006.2 1.8
23/05:30pm 12.7 9.3 10.4 86 1.2 NW 19 22 10 12 1006.2 1006.3 1.8
23/05:00pm 12.9 9.6 11.0 88 1.0 NW 19 24 10 13 1006.3 1006.4 1.8
23/04:58pm 12.9 9.6 11.0 88 1.0 NW 19 24 10 13 1006.4 1006.5 1.8
23/04:30pm 12.9 10.3 10.6 86 1.2 NW 15 20 8 11 1006.2 1006.3 1.8
23/04:27pm 12.9 10.3 10.6 86 1.2 NW 15 20 8 11 1006.2 1006.3 1.8
23/04:15pm 13.0 10.0 10.7 86 1.2 NNW 17 20 9 11 1006.5 1006.6 1.8
23/04:00pm 13.4 10.5 10.9 85 1.3 NNW 17 20 9 11 1006.8 1006.8 1.8
23/03:30pm 13.6 10.8 11.3 86 1.2 NNW 17 24 9 13 1007.3 1007.3 1.8
23/03:00pm 12.7 9.4 10.9 89 1.0 NNW 19 22 10 12 1008.0 1008.0 1.8
23/02:57pm 12.6 9.3 10.8 89 0.9 NNW 19 22 10 12 1008.0 1008.0 1.8
23/02:30pm 12.7 9.1 10.6 87 1.1 NNW 20 26 11 14 1008.1 1008.1 1.8
23/02:00pm 12.9 9.3 10.6 86 1.2 NNW 20 24 11 13 1008.0 1008.0 1.6
23/01:57pm 13.4 10.3 11.6 89 1.0 NW 19 24 10 13 1008.0 1008.0 1.6
23/01:30pm 12.8 10.3 10.9 88 1.0 NW 15 19 8 10 1008.5 1008.5 1.6
23/01:00pm 12.3 9.2 10.4 88 1.0 NNW 17 20 9 11 1008.7 1008.7 1.6
23/12:30pm 12.2 9.6 10.6 90 0.8 NNW 15 19 8 10 1009.2 1009.2 1.6
23/12:00pm 12.0 8.9 10.4 90 0.8 NW 17 20 9 11 1009.7 1009.8 1.4
23/11:30am 12.0 9.3 10.4 90 0.8 NW 15 20 8 11 1010.0 1010.1 0.8
23/11:00am 12.0 8.8 9.9 87 1.1 NNW 17 20 9 11 1010.3 1010.4 0.4
23/10:30am 12.1 9.1 9.1 82 1.5 NNW 15 19 8 10 1010.4 1010.5 0.0
23/10:00am 11.8 8.6 8.5 80 1.6 NNW 15 20 8 11 1010.7 1010.8 0.0
23/09:30am 11.4 7.8 8.4 82 1.5 NNW 17 20 9 11 1011.0 1011.1 0.0
23/09:00am 11.7 9.2 9.8 88 1.0 NNW 13 17 7 9 1011.3 1011.4 0.0
23/08:30am 10.8 9.0 9.6 92 0.6 NNW 9 15 5 8 1011.4 1011.5 0.0
23/08:00am 9.9 8.5 8.8 93 0.5 N 6 7 3 4 1011.3 1011.4 0.0
23/07:30am 9.6 9.3 8.7 94 0.4 CALM 0 0 0 0 1011.4 1011.5 0.0
23/07:00am 9.4 9.1 8.5 94 0.4 CALM 0 0 0 0 1011.2 1011.3 0.0
23/06:30am 9.2 8.8 8.3 94 0.4 CALM 0 0 0 0 1011.4 1011.5 0.0
23/06:00am 8.8 8.3 8.0 95 0.4 CALM 0 0 0 0 1011.3 1011.4 0.0
23/05:30am 8.8 7.0 8.0 95 0.4 SW 7 9 4 5 1011.3 1011.4 0.0
23/05:00am 8.0 7.4 7.2 95 0.4 CALM 0 0 0 0 1011.4 1011.5 0.0
23/04:30am 7.8 7.1 7.1 95 0.3 CALM 0 0 0 0 1011.3 1011.4 0.0
23/04:00am 7.7 5.7 7.0 95 0.3 SE 7 9 4 5 1011.4 1011.5 0.0
23/03:35am 7.2 4.6 6.3 94 0.4 SW 9 9 5 5 1012.2 1012.3 0.0
23/03:30am 7.5 5.0 6.6 94 0.4 S 9 11 5 6 1012.1 1012.2 0.0
23/03:00am 8.3 7.7 7.2 93 0.5 CALM 0 0 0 0 1012.4 1012.5 0.0
23/02:57am 8.1 7.4 6.9 92 0.6 CALM 0 0 0 0 1012.4 1012.5 0.0
23/02:30am 7.7 6.1 6.3 91 0.6 ENE 4 7 2 4 1012.9 1013.0 0.0
23/02:00am 8.1 5.6 6.4 89 0.8 NNE 9 11 5 6 1013.6 1013.6 0.0
23/01:30am 9.1 7.3 7.1 87 0.9 W 6 9 3 5 1014.2 1014.2 0.0
23/01:00am 9.8 7.9 7.7 87 1.0 W 7 9 4 5 1014.5 1014.6 0.0
23/12:30am 10.2 7.7 8.3 88 0.9 W 11 15 6 8 1014.6 1014.7 0.0
23/12:00am 10.1 7.9 8.0 87 1.0 WSW 9 11 5 6 1014.6 1014.7 0.0
 
Date/Time
EDT
Temp
°C
App
Temp
°C
Dew
Point
°C
Rel
Hum
%
Delta-T
°C
Wind Press
QNH
hPa
Press
MSL
hPa
Rain since
9am
mm
Dir  Spd
km/h
Gust
km/h
Spd
kts
Gust
kts
22/11:30pm 10.1 9.1 7.5 84 1.3 NNW 2 6 1 3 1015.0 1015.1 0.0
22/11:00pm 10.0 8.5 6.9 81 1.5 NW 4 9 2 5 1015.1 1015.2 0.0
22/10:30pm 9.6 6.5 7.4 86 1.1 NW 13 17 7 9 1015.5 1015.6 0.0
22/10:00pm 10.4 7.3 7.3 81 1.5 NW 13 20 7 11 1015.3 1015.4 0.0
22/09:30pm 10.4 6.9 7.1 80 1.6 NW 15 17 8 9 1015.3 1015.4 0.0
22/09:00pm 11.6 8.0 8.3 80 1.6 NNW 17 20 9 11 1014.9 1015.0 0.0
22/08:30pm 12.0 8.4 8.3 78 1.8 NNW 17 22 9 12 1014.6 1014.7 0.0
22/08:00pm 12.9 8.8 8.6 75 2.2 NNW 20 26 11 14 1014.4 1014.4 0.0
22/07:30pm 13.7 8.9 9.0 73 2.4 NNW 24 32 13 17 1014.3 1014.3 0.0
22/07:00pm 14.3 10.6 9.3 72 2.6 NNW 19 26 10 14 1014.2 1014.2 0.0
22/06:30pm 14.9 10.9 9.1 68 3.0 NNW 20 28 11 15 1013.9 1013.9 0.0
22/06:00pm 15.5 11.2 9.4 67 3.2 N 22 30 12 16 1013.8 1013.8 0.0
22/05:30pm 16.0 11.9 10.1 68 3.1 NNW 22 28 12 15 1013.5 1013.5 0.0
22/05:00pm 16.9 13.0 9.6 62 3.8 N 20 28 11 15 1013.4 1013.4 0.0
22/04:30pm 15.3 11.4 9.4 68 3.1 NNW 20 28 11 15 1013.9 1013.9 0.0
22/04:00pm 17.7 14.1 10.6 63 3.8 NNW 20 28 11 15 1014.2 1014.2 0.0
22/03:30pm 16.3 13.4 9.5 64 3.6 NW 15 20 8 11 1014.5 1014.6 0.0
22/03:00pm 16.3 13.8 8.3 59 4.1 NW 11 15 6 8 1014.4 1014.4 0.0
22/02:30pm 17.6 16.0 7.9 53 5.0 SSW 6 11 3 6 1014.5 1014.6 0.0
22/02:00pm 16.5 14.6 7.7 56 4.5 SSW 7 11 4 6 1014.7 1014.8 0.0
22/01:30pm 16.8 15.3 9.0 60 4.1 SSW 7 13 4 7 1015.0 1015.1 0.0
22/01:00pm 15.8 13.9 9.0 64 3.5 SSW 9 13 5 7 1015.2 1015.3 0.0
22/12:30pm 15.5 12.6 8.3 62 3.7 SSW 13 17 7 9 1015.6 1015.7 0.0
22/12:00pm 15.3 13.7 8.8 65 3.3 SSW 7 13 4 7 1015.8 1015.9 0.0
22/11:30am 15.2 13.1 8.2 63 3.6 WSW 9 17 5 9 1015.9 1016.0 0.0
22/11:00am 15.6 14.2 9.5 67 3.2 WSW 7 11 4 6 1016.0 1016.1 0.0
22/10:30am 14.3 11.5 8.7 69 2.9 S 13 17 7 9 1016.3 1016.4 0.0
22/10:00am 14.2 11.0 8.6 69 2.8 S 15 20 8 11 1016.5 1016.6 0.0
22/09:30am 13.5 10.1 9.2 75 2.2 SSE 17 20 9 11 1016.4 1016.5 0.0
22/09:00am 13.3 10.7 9.5 78 2.0 SSE 13 19 7 10 1016.5 1016.6 0.0
22/08:30am 12.6 10.2 10.1 85 1.3 SSE 13 17 7 9 1016.5 1016.6 0.0
22/08:00am 11.4 9.3 9.7 89 0.9 E 11 15 6 8 1016.3 1016.4 0.0
22/07:30am 11.1 8.2 9.7 91 0.7 SSE 15 19 8 10 1016.1 1016.2 0.0
22/07:00am 10.3 7.7 9.4 94 0.5 SSE 13 17 7 9 1015.8 1015.9 0.0
22/06:30am 9.8 7.1 8.9 94 0.4 SSE 13 19 7 10 1015.5 1015.6 0.0
22/06:00am 9.9 6.8 9.0 94 0.4 S 15 19 8 10 1015.3 1015.4 0.0
22/05:30am 10.1 7.0 9.0 93 0.5 SSE 15 19 8 10 1014.9 1015.0 0.0

Other formats

Comma delimited format used in spreadsheet applications
http://www.bom.gov.au/fwo/IDT60801/IDT60801.95966.axf

JavaScript Object Notation format (JSON) in row-major order
http://www.bom.gov.au/fwo/IDT60801/IDT60801.95966.json

Data quality

Most of these data are generated automatically and are frequently updated. Quality checks on data are not normally performed. It is possible for incorrect values to appear. Refer to information at About Latest Weather Observations and please check the disclaimer before using these data.